Aviation Digital Data Service (ADDS)

Output produced by METARs form (1810 UTC 25 March 2019)
found at http://www.aviationweather.gov/metar/data/
 
METAR text: ROYN 251800Z AUTO 03020KT 9999 BKN019 OVC023 21/17 Q1018
Conditions at: ROYN (YONAGUNI AIRPORT, JP) observed 1800 UTC 25 March 2019
Temperature: 21.0°C (70°F)
Dewpoint: 17.0°C (63°F) [RH = 78%]
Pressure (altimeter): 30.06 inches Hg (1018.0 mb)
Winds: from the NNE (30 degrees) at 23 MPH (20 knots; 10.3 m/s)
Visibility: 6 or more miles (10+ km)
Ceiling: 1900 feet AGL
Clouds: broken clouds at 1900 feet AGL
overcast cloud deck at 2300 feet AGL
Weather: no significant weather observed at this time

METAR text: ROYN 251700Z AUTO 01018KT 9999 FEW018 BKN022 OVC025 21/18 Q1018
Conditions at: ROYN (YONAGUNI AIRPORT, JP) observed 1700 UTC 25 March 2019
Temperature: 21.0°C (70°F)
Dewpoint: 18.0°C (64°F) [RH = 83%]
Pressure (altimeter): 30.06 inches Hg (1018.0 mb)
Winds: from the N (10 degrees) at 21 MPH (18 knots; 9.3 m/s)
Visibility: 6 or more miles (10+ km)
Ceiling: 2200 feet AGL
Clouds: few clouds at 1800 feet AGL
broken clouds at 2200 feet AGL
overcast cloud deck at 2500 feet AGL
Weather: no significant weather observed at this time

METAR text: ROYN 251600Z AUTO 01020KT 9999 BKN018 OVC022 22/18 Q1018
Conditions at: ROYN (YONAGUNI AIRPORT, JP) observed 1600 UTC 25 March 2019
Temperature: 22.0°C (72°F)
Dewpoint: 18.0°C (64°F) [RH = 78%]
Pressure (altimeter): 30.06 inches Hg (1018.0 mb)
Winds: from the N (10 degrees) at 23 MPH (20 knots; 10.3 m/s)
Visibility: 6 or more miles (10+ km)
Ceiling: 1800 feet AGL
Clouds: broken clouds at 1800 feet AGL
overcast cloud deck at 2200 feet AGL
Weather: no significant weather observed at this time

METAR text: ROYN 251500Z AUTO 01021KT 9999 FEW017 OVC024 22/18 Q1018
Conditions at: ROYN (YONAGUNI AIRPORT, JP) observed 1500 UTC 25 March 2019
Temperature: 22.0°C (72°F)
Dewpoint: 18.0°C (64°F) [RH = 78%]
Pressure (altimeter): 30.06 inches Hg (1018.0 mb)
Winds: from the N (10 degrees) at 24 MPH (21 knots; 10.8 m/s)
Visibility: 6 or more miles (10+ km)
Ceiling: 2400 feet AGL
Clouds: few clouds at 1700 feet AGL
overcast cloud deck at 2400 feet AGL
Weather: no significant weather observed at this time

METAR text: ROYN 251400Z AUTO 36020KT 9999 BKN017 BKN021 OVC026 22/18 Q1018
Conditions at: ROYN (YONAGUNI AIRPORT, JP) observed 1400 UTC 25 March 2019
Temperature: 22.0°C (72°F)
Dewpoint: 18.0°C (64°F) [RH = 78%]
Pressure (altimeter): 30.06 inches Hg (1018.0 mb)
Winds: from the N (360 degrees) at 23 MPH (20 knots; 10.3 m/s)
Visibility: 6 or more miles (10+ km)
Ceiling: 1700 feet AGL
Clouds: broken clouds at 1700 feet AGL
broken clouds at 2100 feet AGL
overcast cloud deck at 2600 feet AGL
Weather: no significant weather observed at this time

METAR text: ROYN 251300Z AUTO 36019KT 9999 BKN017 BKN022 OVC024 22/19 Q1018
Conditions at: ROYN (YONAGUNI AIRPORT, JP) observed 1300 UTC 25 March 2019
Temperature: 22.0°C (72°F)
Dewpoint: 19.0°C (66°F) [RH = 83%]
Pressure (altimeter): 30.06 inches Hg (1018.0 mb)
Winds: from the N (360 degrees) at 22 MPH (19 knots; 9.8 m/s)
Visibility: 6 or more miles (10+ km)
Ceiling: 1700 feet AGL
Clouds: broken clouds at 1700 feet AGL
broken clouds at 2200 feet AGL
overcast cloud deck at 2400 feet AGL
Weather: no significant weather observed at this time

METAR text: ROYN 251200Z AUTO 35021KT 9999 BKN018 OVC026 22/19 Q1016
Conditions at: ROYN (YONAGUNI AIRPORT, JP) observed 1200 UTC 25 March 2019
Temperature: 22.0°C (72°F)
Dewpoint: 19.0°C (66°F) [RH = 83%]
Pressure (altimeter): 30.00 inches Hg (1016.0 mb)
Winds: from the N (350 degrees) at 24 MPH (21 knots; 10.8 m/s)
Visibility: 6 or more miles (10+ km)
Ceiling: 1800 feet AGL
Clouds: broken clouds at 1800 feet AGL
overcast cloud deck at 2600 feet AGL
Weather: no significant weather observed at this time

METAR text: ROYN 251100Z AUTO 35022KT 9999 BKN017 22/19 Q1015
Conditions at: ROYN (YONAGUNI AIRPORT, JP) observed 1100 UTC 25 March 2019
Temperature: 22.0°C (72°F)
Dewpoint: 19.0°C (66°F) [RH = 83%]
Pressure (altimeter): 29.97 inches Hg (1015.0 mb)
Winds: from the N (350 degrees) at 25 MPH (22 knots; 11.3 m/s)
Visibility: 6 or more miles (10+ km)
Ceiling: 1700 feet AGL
Clouds: broken clouds at 1700 feet AGL
Weather: no significant weather observed at this time

METAR text: ROYN 251000Z AUTO 34022KT 9999 SCT015 SCT140 BKN160 22/19 Q1015
Conditions at: ROYN (YONAGUNI AIRPORT, JP) observed 1000 UTC 25 March 2019
Temperature: 22.0°C (72°F)
Dewpoint: 19.0°C (66°F) [RH = 83%]
Pressure (altimeter): 29.97 inches Hg (1015.0 mb)
Winds: from the NNW (340 degrees) at 25 MPH (22 knots; 11.3 m/s)
Visibility: 6 or more miles (10+ km)
Ceiling: 16000 feet AGL
Clouds: scattered clouds at 1500 feet AGL
scattered clouds at 14000 feet AGL
broken clouds at 16000 feet AGL
Weather: no significant weather observed at this time

METAR text: ROYN 250900Z AUTO 33024KT 9999 BKN012 BKN060 OVC080 22/19 Q1015
Conditions at: ROYN (YONAGUNI AIRPORT, JP) observed 0900 UTC 25 March 2019
Temperature: 22.0°C (72°F)
Dewpoint: 19.0°C (66°F) [RH = 83%]
Pressure (altimeter): 29.97 inches Hg (1015.0 mb)
Winds: from the NNW (330 degrees) at 28 MPH (24 knots; 12.3 m/s)
Visibility: 6 or more miles (10+ km)
Ceiling: 1200 feet AGL
Clouds: broken clouds at 1200 feet AGL
broken clouds at 6000 feet AGL
overcast cloud deck at 8000 feet AGL
Weather: no significant weather observed at this time

METAR text: ROYN 250800Z AUTO 32019KT 9999 FEW016 OVC042 22/19 Q1014
Conditions at: ROYN (YONAGUNI AIRPORT, JP) observed 0800 UTC 25 March 2019
Temperature: 22.0°C (72°F)
Dewpoint: 19.0°C (66°F) [RH = 83%]
Pressure (altimeter): 29.94 inches Hg (1014.0 mb)
Winds: from the NW (320 degrees) at 22 MPH (19 knots; 9.8 m/s)
Visibility: 6 or more miles (10+ km)
Ceiling: 4200 feet AGL
Clouds: few clouds at 1600 feet AGL
overcast cloud deck at 4200 feet AGL
Weather: no significant weather observed at this time

METAR text: ROYN 250700Z AUTO 33025KT 9999 FEW014 SCT021 BKN024 22/19 Q1014
Conditions at: ROYN (YONAGUNI AIRPORT, JP) observed 0700 UTC 25 March 2019
Temperature: 22.0°C (72°F)
Dewpoint: 19.0°C (66°F) [RH = 83%]
Pressure (altimeter): 29.94 inches Hg (1014.0 mb)
Winds: from the NNW (330 degrees) at 29 MPH (25 knots; 12.9 m/s)
Visibility: 6 or more miles (10+ km)
Ceiling: 2400 feet AGL
Clouds: few clouds at 1400 feet AGL
scattered clouds at 2100 feet AGL
broken clouds at 2400 feet AGL
Weather: no significant weather observed at this time

METAR text: ROYN 250600Z AUTO 32022KT 9999 OVC038 23/20 Q1014
Conditions at: ROYN (YONAGUNI AIRPORT, JP) observed 0600 UTC 25 March 2019
Temperature: 23.0°C (73°F)
Dewpoint: 20.0°C (68°F) [RH = 83%]
Pressure (altimeter): 29.94 inches Hg (1014.0 mb)
Winds: from the NW (320 degrees) at 25 MPH (22 knots; 11.3 m/s)
Visibility: 6 or more miles (10+ km)
Ceiling: 3800 feet AGL
Clouds: overcast cloud deck at 3800 feet AGL
Weather: no significant weather observed at this time

METAR text: ROYN 250500Z AUTO 32020KT 9999 BKN036 OVC070 24/20 Q1014
Conditions at: ROYN (YONAGUNI AIRPORT, JP) observed 0500 UTC 25 March 2019
Temperature: 24.0°C (75°F)
Dewpoint: 20.0°C (68°F) [RH = 78%]
Pressure (altimeter): 29.94 inches Hg (1014.0 mb)
Winds: from the NW (320 degrees) at 23 MPH (20 knots; 10.3 m/s)
Visibility: 6 or more miles (10+ km)
Ceiling: 3600 feet AGL
Clouds: broken clouds at 3600 feet AGL
overcast cloud deck at 7000 feet AGL
Weather: no significant weather observed at this time

METAR text: ROYN 250400Z AUTO 33020KT 9999 SCT021 BKN027 BKN036 23/20 Q1015
Conditions at: ROYN (YONAGUNI AIRPORT, JP) observed 0400 UTC 25 March 2019
Temperature: 23.0°C (73°F)
Dewpoint: 20.0°C (68°F) [RH = 83%]
Pressure (altimeter): 29.97 inches Hg (1015.0 mb)
Winds: from the NNW (330 degrees) at 23 MPH (20 knots; 10.3 m/s)
Visibility: 6 or more miles (10+ km)
Ceiling: 2700 feet AGL
Clouds: scattered clouds at 2100 feet AGL
broken clouds at 2700 feet AGL
broken clouds at 3600 feet AGL
Weather: no significant weather observed at this time

METAR text: ROYN 250300Z AUTO 30015KT 9999 BKN017 OVC047 //////TCU 24/20 Q1016
Conditions at: ROYN (YONAGUNI AIRPORT, JP) observed 0300 UTC 25 March 2019
Temperature: 24.0°C (75°F)
Dewpoint: 20.0°C (68°F) [RH = 78%]
Pressure (altimeter): 30.00 inches Hg (1016.0 mb)
Winds: from the WNW (300 degrees) at 17 MPH (15 knots; 7.7 m/s)
Visibility: 6 or more miles (10+ km)
Ceiling: 1700 feet AGL
Clouds: broken clouds at 1700 feet AGL
overcast cloud deck at 4700 feet AGL
Weather: no significant weather observed at this time

METAR text: ROYN 250200Z AUTO 26010KT 9999 FEW015 SCT017 OVC038 //////TCU 25/21 Q1016
Conditions at: ROYN (YONAGUNI AIRPORT, JP) observed 0200 UTC 25 March 2019
Temperature: 25.0°C (77°F)
Dewpoint: 21.0°C (70°F) [RH = 79%]
Pressure (altimeter): 30.00 inches Hg (1016.0 mb)
Winds: from the W (260 degrees) at 12 MPH (10 knots; 5.1 m/s)
Visibility: 6 or more miles (10+ km)
Ceiling: 3800 feet AGL
Clouds: few clouds at 1500 feet AGL
scattered clouds at 1700 feet AGL
overcast cloud deck at 3800 feet AGL
Weather: no significant weather observed at this time

METAR text: ROYN 250100Z AUTO 25011KT 9999 FEW014 SCT044 BKN070 25/22 Q1015
Conditions at: ROYN (YONAGUNI AIRPORT, JP) observed 0100 UTC 25 March 2019
Temperature: 25.0°C (77°F)
Dewpoint: 22.0°C (72°F) [RH = 83%]
Pressure (altimeter): 29.97 inches Hg (1015.0 mb)
Winds: from the WSW (250 degrees) at 13 MPH (11 knots; 5.7 m/s)
Visibility: 6 or more miles (10+ km)
Ceiling: 7000 feet AGL
Clouds: few clouds at 1400 feet AGL
scattered clouds at 4400 feet AGL
broken clouds at 7000 feet AGL
Weather: no significant weather observed at this time

METAR text: ROYN 250000Z AUTO 23008KT 9999 FEW015 SCT022 BKN060 //////TCU 24/21 Q1015
Conditions at: ROYN (YONAGUNI AIRPORT, JP) observed 0000 UTC 25 March 2019
Temperature: 24.0°C (75°F)
Dewpoint: 21.0°C (70°F) [RH = 83%]
Pressure (altimeter): 29.97 inches Hg (1015.0 mb)
Winds: from the SW (230 degrees) at 9 MPH (8 knots; 4.1 m/s)
Visibility: 6 or more miles (10+ km)
Ceiling: 6000 feet AGL
Clouds: few clouds at 1500 feet AGL
scattered clouds at 2200 feet AGL
broken clouds at 6000 feet AGL
Weather: no significant weather observed at this time

METAR text: ROYN 242300Z AUTO 21003KT 180V250 9999 SCT012 BKN019 //////TCU 22/21 Q1015
Conditions at: ROYN (YONAGUNI AIRPORT, JP) observed 2300 UTC 24 March 2019
Temperature: 22.0°C (72°F)
Dewpoint: 21.0°C (70°F) [RH = 94%]
Pressure (altimeter): 29.97 inches Hg (1015.0 mb)
Winds: from the SSW (210 degrees) at 3 MPH (3 knots; 1.5 m/s)
Visibility: 6 or more miles (10+ km)
Ceiling: 1900 feet AGL
Clouds: scattered clouds at 1200 feet AGL
broken clouds at 1900 feet AGL
Weather: no significant weather observed at this time

METAR text: ROYN 242200Z AUTO 17005KT 120V220 9999 FEW070 OVC080 //////TCU 21/20 Q1014
Conditions at: ROYN (YONAGUNI AIRPORT, JP) observed 2200 UTC 24 March 2019
Temperature: 21.0°C (70°F)
Dewpoint: 20.0°C (68°F) [RH = 94%]
Pressure (altimeter): 29.94 inches Hg (1014.0 mb)
Winds: from the S (170 degrees) at 6 MPH (5 knots; 2.6 m/s)
Visibility: 6 or more miles (10+ km)
Ceiling: 8000 feet AGL
Clouds: few clouds at 7000 feet AGL
overcast cloud deck at 8000 feet AGL
Weather: no significant weather observed at this time

METAR text: ROYN 242100Z AUTO 15009KT 9999 SCT011 SCT024 BKN031 //////TCU 22/20 Q1014
Conditions at: ROYN (YONAGUNI AIRPORT, JP) observed 2100 UTC 24 March 2019
Temperature: 22.0°C (72°F)
Dewpoint: 20.0°C (68°F) [RH = 88%]
Pressure (altimeter): 29.94 inches Hg (1014.0 mb)
Winds: from the SSE (150 degrees) at 10 MPH (9 knots; 4.6 m/s)
Visibility: 6 or more miles (10+ km)
Ceiling: 3100 feet AGL
Clouds: scattered clouds at 1100 feet AGL
scattered clouds at 2400 feet AGL
broken clouds at 3100 feet AGL
Weather: no significant weather observed at this time

METAR text: ROYN 242000Z AUTO 14009KT 9999 -RA BKN012 BKN036 OVC039 //////TCU 21/20 Q1014
Conditions at: ROYN (YONAGUNI AIRPORT, JP) observed 2000 UTC 24 March 2019
Temperature: 21.0°C (70°F)
Dewpoint: 20.0°C (68°F) [RH = 94%]
Pressure (altimeter): 29.94 inches Hg (1014.0 mb)
Winds: from the SE (140 degrees) at 10 MPH (9 knots; 4.6 m/s)
Visibility: 6 or more miles (10+ km)
Ceiling: 1200 feet AGL
Clouds: broken clouds at 1200 feet AGL
broken clouds at 3600 feet AGL
overcast cloud deck at 3900 feet AGL
Weather: -RA  (light rain)

METAR text: ROYN 241900Z AUTO 14008KT 080V170 9999 FEW012 SCT016 BKN021 21/20 Q1014
Conditions at: ROYN (YONAGUNI AIRPORT, JP) observed 1900 UTC 24 March 2019
Temperature: 21.0°C (70°F)
Dewpoint: 20.0°C (68°F) [RH = 94%]
Pressure (altimeter): 29.94 inches Hg (1014.0 mb)
Winds: from the SE (140 degrees) at 9 MPH (8 knots; 4.1 m/s)
Visibility: 6 or more miles (10+ km)
Ceiling: 2100 feet AGL
Clouds: few clouds at 1200 feet AGL
scattered clouds at 1600 feet AGL
broken clouds at 2100 feet AGL
Weather: no significant weather observed at this time

METAR text: ROYN 241800Z AUTO 13006KT 9999 -RA FEW017 SCT020 BKN035 21/19 Q1015
Conditions at: ROYN (YONAGUNI AIRPORT, JP) observed 1800 UTC 24 March 2019
Temperature: 21.0°C (70°F)
Dewpoint: 19.0°C (66°F) [RH = 88%]
Pressure (altimeter): 29.97 inches Hg (1015.0 mb)
Winds: from the SE (130 degrees) at 7 MPH (6 knots; 3.1 m/s)
Visibility: 6 or more miles (10+ km)
Ceiling: 3500 feet AGL
Clouds: few clouds at 1700 feet AGL
scattered clouds at 2000 feet AGL
broken clouds at 3500 feet AGL
Weather: -RA  (light rain)

METAR text: ROYN 241700Z AUTO 12009KT 9999 -RA OVC029 21/18 Q1016
Conditions at: ROYN (YONAGUNI AIRPORT, JP) observed 1700 UTC 24 March 2019
Temperature: 21.0°C (70°F)
Dewpoint: 18.0°C (64°F) [RH = 83%]
Pressure (altimeter): 30.00 inches Hg (1016.0 mb)
Winds: from the ESE (120 degrees) at 10 MPH (9 knots; 4.6 m/s)
Visibility: 6 or more miles (10+ km)
Ceiling: 2900 feet AGL
Clouds: overcast cloud deck at 2900 feet AGL
Weather: -RA  (light rain)

METAR text: ROYN 241600Z AUTO 11010KT 9999 -RA SCT019 BKN024 OVC035 21/18 Q1017
Conditions at: ROYN (YONAGUNI AIRPORT, JP) observed 1600 UTC 24 March 2019
Temperature: 21.0°C (70°F)
Dewpoint: 18.0°C (64°F) [RH = 83%]
Pressure (altimeter): 30.03 inches Hg (1017.0 mb)
Winds: from the ESE (110 degrees) at 12 MPH (10 knots; 5.1 m/s)
Visibility: 6 or more miles (10+ km)
Ceiling: 2400 feet AGL
Clouds: scattered clouds at 1900 feet AGL
broken clouds at 2400 feet AGL
overcast cloud deck at 3500 feet AGL
Weather: -RA  (light rain)

METAR text: ROYN 241500Z AUTO 11008KT 9999 -RA BKN026 BKN032 OVC036 20/17 Q1017
Conditions at: ROYN (YONAGUNI AIRPORT, JP) observed 1500 UTC 24 March 2019
Temperature: 20.0°C (68°F)
Dewpoint: 17.0°C (63°F) [RH = 83%]
Pressure (altimeter): 30.03 inches Hg (1017.0 mb)
Winds: from the ESE (110 degrees) at 9 MPH (8 knots; 4.1 m/s)
Visibility: 6 or more miles (10+ km)
Ceiling: 2600 feet AGL
Clouds: broken clouds at 2600 feet AGL
broken clouds at 3200 feet AGL
overcast cloud deck at 3600 feet AGL
Weather: -RA  (light rain)

METAR text: ROYN 241400Z AUTO 11008KT 9999 -RA FEW029 BKN035 OVC040 20/16 Q1018
Conditions at: ROYN (YONAGUNI AIRPORT, JP) observed 1400 UTC 24 March 2019
Temperature: 20.0°C (68°F)
Dewpoint: 16.0°C (61°F) [RH = 78%]
Pressure (altimeter): 30.06 inches Hg (1018.0 mb)
Winds: from the ESE (110 degrees) at 9 MPH (8 knots; 4.1 m/s)
Visibility: 6 or more miles (10+ km)
Ceiling: 3500 feet AGL
Clouds: few clouds at 2900 feet AGL
broken clouds at 3500 feet AGL
overcast cloud deck at 4000 feet AGL
Weather: -RA  (light rain)

METAR text: ROYN 241300Z AUTO 11006KT 9999 -RA BKN028 OVC034 20/16 Q1018
Conditions at: ROYN (YONAGUNI AIRPORT, JP) observed 1300 UTC 24 March 2019
Temperature: 20.0°C (68°F)
Dewpoint: 16.0°C (61°F) [RH = 78%]
Pressure (altimeter): 30.06 inches Hg (1018.0 mb)
Winds: from the ESE (110 degrees) at 7 MPH (6 knots; 3.1 m/s)
Visibility: 6 or more miles (10+ km)
Ceiling: 2800 feet AGL
Clouds: broken clouds at 2800 feet AGL
overcast cloud deck at 3400 feet AGL
Weather: -RA  (light rain)

METAR text: ROYN 241200Z AUTO 13004KT 080V150 9999 -RA BKN029 OVC036 19/16 Q1018
Conditions at: ROYN (YONAGUNI AIRPORT, JP) observed 1200 UTC 24 March 2019
Temperature: 19.0°C (66°F)
Dewpoint: 16.0°C (61°F) [RH = 83%]
Pressure (altimeter): 30.06 inches Hg (1018.0 mb)
Winds: from the SE (130 degrees) at 5 MPH (4 knots; 2.1 m/s)
Visibility: 6 or more miles (10+ km)
Ceiling: 2900 feet AGL
Clouds: broken clouds at 2900 feet AGL
overcast cloud deck at 3600 feet AGL
Weather: -RA  (light rain)

METAR text: ROYN 241100Z AUTO 14004KT 090V170 9999 -RA FEW029 OVC033 19/16 Q1018
Conditions at: ROYN (YONAGUNI AIRPORT, JP) observed 1100 UTC 24 March 2019
Temperature: 19.0°C (66°F)
Dewpoint: 16.0°C (61°F) [RH = 83%]
Pressure (altimeter): 30.06 inches Hg (1018.0 mb)
Winds: from the SE (140 degrees) at 5 MPH (4 knots; 2.1 m/s)
Visibility: 6 or more miles (10+ km)
Ceiling: 3300 feet AGL
Clouds: few clouds at 2900 feet AGL
overcast cloud deck at 3300 feet AGL
Weather: -RA  (light rain)

METAR text: ROYN 241000Z AUTO 14004KT 9999 FEW031 OVC046 19/16 Q1017
Conditions at: ROYN (YONAGUNI AIRPORT, JP) observed 1000 UTC 24 March 2019
Temperature: 19.0°C (66°F)
Dewpoint: 16.0°C (61°F) [RH = 83%]
Pressure (altimeter): 30.03 inches Hg (1017.0 mb)
Winds: from the SE (140 degrees) at 5 MPH (4 knots; 2.1 m/s)
Visibility: 6 or more miles (10+ km)
Ceiling: 4600 feet AGL
Clouds: few clouds at 3100 feet AGL
overcast cloud deck at 4600 feet AGL
Weather: no significant weather observed at this time

METAR text: ROYN 240900Z AUTO 11008KT 090V150 9999 FEW029 OVC043 19/16 Q1017
Conditions at: ROYN (YONAGUNI AIRPORT, JP) observed 0900 UTC 24 March 2019
Temperature: 19.0°C (66°F)
Dewpoint: 16.0°C (61°F) [RH = 83%]
Pressure (altimeter): 30.03 inches Hg (1017.0 mb)
Winds: from the ESE (110 degrees) at 9 MPH (8 knots; 4.1 m/s)
Visibility: 6 or more miles (10+ km)
Ceiling: 4300 feet AGL
Clouds: few clouds at 2900 feet AGL
overcast cloud deck at 4300 feet AGL
Weather: no significant weather observed at this time

METAR text: ROYN 240800Z AUTO 07010KT 9999 -RA BKN024 OVC038 19/16 Q1018
Conditions at: ROYN (YONAGUNI AIRPORT, JP) observed 0800 UTC 24 March 2019
Temperature: 19.0°C (66°F)
Dewpoint: 16.0°C (61°F) [RH = 83%]
Pressure (altimeter): 30.06 inches Hg (1018.0 mb)
Winds: from the ENE (70 degrees) at 12 MPH (10 knots; 5.1 m/s)
Visibility: 6 or more miles (10+ km)
Ceiling: 2400 feet AGL
Clouds: broken clouds at 2400 feet AGL
overcast cloud deck at 3800 feet AGL
Weather: -RA  (light rain)

METAR text: ROYN 240700Z AUTO 07010KT 7000 -RA FEW024 BKN029 OVC037 19/16 Q1018
Conditions at: ROYN (YONAGUNI AIRPORT, JP) observed 0700 UTC 24 March 2019
Temperature: 19.0°C (66°F)
Dewpoint: 16.0°C (61°F) [RH = 83%]
Pressure (altimeter): 30.06 inches Hg (1018.0 mb)
Winds: from the ENE (70 degrees) at 12 MPH (10 knots; 5.1 m/s)
Visibility: 4 miles ( 7 km)
Ceiling: 2900 feet AGL
Clouds: few clouds at 2400 feet AGL
broken clouds at 2900 feet AGL
overcast cloud deck at 3700 feet AGL
Weather: -RA  (light rain)